sensor_id;sensor_type;location;lat;lon;timestamp;P1;durP1;ratioP1;P2;durP2;ratioP2
1593;SDS011;790;47.000;16.084;2022-09-03T00:00:38;2.53;;;2.10;;
1593;SDS011;790;47.000;16.084;2022-09-03T00:07:03;4.03;;;2.37;;
1593;SDS011;790;47.000;16.084;2022-09-03T00:13:32;2.43;;;2.23;;
1593;SDS011;790;47.000;16.084;2022-09-03T00:19:57;2.70;;;2.50;;
1593;SDS011;790;47.000;16.084;2022-09-03T00:26:44;2.60;;;2.37;;
1593;SDS011;790;47.000;16.084;2022-09-03T00:33:11;3.87;;;2.50;;
1593;SDS011;790;47.000;16.084;2022-09-03T00:39:38;4.90;;;2.67;;
1593;SDS011;790;47.000;16.084;2022-09-03T00:46:02;2.43;;;2.30;;
1593;SDS011;790;47.000;16.084;2022-09-03T00:52:40;3.90;;;2.43;;
1593;SDS011;790;47.000;16.084;2022-09-03T00:59:09;2.97;;;2.40;;
1593;SDS011;790;47.000;16.084;2022-09-03T01:05:45;3.93;;;2.00;;
1593;SDS011;790;47.000;16.084;2022-09-03T01:12:26;2.77;;;2.40;;
1593;SDS011;790;47.000;16.084;2022-09-03T01:18:55;2.50;;;2.30;;
1593;SDS011;790;47.000;16.084;2022-09-03T01:29:59;2.40;;;2.20;;
1593;SDS011;790;47.000;16.084;2022-09-03T01:36:11;3.43;;;2.20;;
1593;SDS011;790;47.000;16.084;2022-09-03T01:42:29;4.03;;;2.33;;
1593;SDS011;790;47.000;16.084;2022-09-03T01:48:48;2.47;;;2.37;;
1593;SDS011;790;47.000;16.084;2022-09-03T01:55:05;2.90;;;2.13;;
1593;SDS011;790;47.000;16.084;2022-09-03T02:01:25;2.67;;;2.47;;
1593;SDS011;790;47.000;16.084;2022-09-03T02:07:40;3.63;;;2.50;;
1593;SDS011;790;47.000;16.084;2022-09-03T02:13:50;2.73;;;2.53;;
1593;SDS011;790;47.000;16.084;2022-09-03T02:20:04;2.87;;;2.30;;
1593;SDS011;790;47.000;16.084;2022-09-03T02:30:42;2.47;;;1.93;;
1593;SDS011;790;47.000;16.084;2022-09-03T02:37:10;2.40;;;2.30;;
1593;SDS011;790;47.000;16.084;2022-09-03T02:43:33;6.10;;;2.33;;
1593;SDS011;790;47.000;16.084;2022-09-03T02:50:01;2.40;;;2.30;;
1593;SDS011;790;47.000;16.084;2022-09-03T02:56:23;8.00;;;2.50;;
1593;SDS011;790;47.000;16.084;2022-09-03T03:02:46;2.40;;;2.20;;
1593;SDS011;790;47.000;16.084;2022-09-03T03:09:09;4.33;;;2.13;;
1593;SDS011;790;47.000;16.084;2022-09-03T03:15:31;2.93;;;2.67;;
1593;SDS011;790;47.000;16.084;2022-09-03T03:21:53;2.60;;;2.50;;
1593;SDS011;790;47.000;16.084;2022-09-03T03:32:40;2.37;;;2.27;;
1593;SDS011;790;47.000;16.084;2022-09-03T03:38:48;2.80;;;2.60;;
1593;SDS011;790;47.000;16.084;2022-09-03T03:44:59;2.60;;;2.50;;
1593;SDS011;790;47.000;16.084;2022-09-03T03:51:08;2.67;;;2.47;;
1593;SDS011;790;47.000;16.084;2022-09-03T03:57:16;2.23;;;2.13;;
1593;SDS011;790;47.000;16.084;2022-09-03T04:03:25;3.57;;;2.77;;
1593;SDS011;790;47.000;16.084;2022-09-03T04:09:34;2.67;;;2.40;;
1593;SDS011;790;47.000;16.084;2022-09-03T04:15:42;2.40;;;2.30;;
1593;SDS011;790;47.000;16.084;2022-09-03T04:21:50;3.10;;;2.87;;
1593;SDS011;790;47.000;16.084;2022-09-03T04:32:14;3.40;;;3.00;;
1593;SDS011;790;47.000;16.084;2022-09-03T04:38:57;2.70;;;2.50;;
1593;SDS011;790;47.000;16.084;2022-09-03T04:45:20;3.73;;;3.07;;
1593;SDS011;790;47.000;16.084;2022-09-03T04:51:42;2.80;;;2.60;;
1593;SDS011;790;47.000;16.084;2022-09-03T04:58:04;3.70;;;2.50;;
1593;SDS011;790;47.000;16.084;2022-09-03T05:04:27;2.90;;;2.50;;
1593;SDS011;790;47.000;16.084;2022-09-03T05:10:49;2.93;;;2.83;;
1593;SDS011;790;47.000;16.084;2022-09-03T05:17:18;3.13;;;3.03;;
1593;SDS011;790;47.000;16.084;2022-09-03T05:23:39;5.73;;;3.30;;
1593;SDS011;790;47.000;16.084;2022-09-03T05:34:38;4.77;;;4.20;;
1593;SDS011;790;47.000;16.084;2022-09-03T05:40:47;3.57;;;3.27;;
1593;SDS011;790;47.000;16.084;2022-09-03T05:46:54;6.73;;;6.13;;
1593;SDS011;790;47.000;16.084;2022-09-03T05:53:04;3.63;;;3.43;;
1593;SDS011;790;47.000;16.084;2022-09-03T05:59:12;3.13;;;2.90;;
1593;SDS011;790;47.000;16.084;2022-09-03T06:05:20;3.00;;;2.80;;
1593;SDS011;790;47.000;16.084;2022-09-03T06:11:30;4.50;;;2.80;;
1593;SDS011;790;47.000;16.084;2022-09-03T06:17:40;3.53;;;3.13;;
1593;SDS011;790;47.000;16.084;2022-09-03T06:23:49;3.70;;;3.40;;
1593;SDS011;790;47.000;16.084;2022-09-03T06:34:13;4.53;;;4.27;;
1593;SDS011;790;47.000;16.084;2022-09-03T06:40:37;4.70;;;4.40;;
1593;SDS011;790;47.000;16.084;2022-09-03T06:46:58;4.87;;;4.57;;
1593;SDS011;790;47.000;16.084;2022-09-03T06:53:23;12.43;;;11.23;;
1593;SDS011;790;47.000;16.084;2022-09-03T06:59:46;7.50;;;6.63;;
1593;SDS011;790;47.000;16.084;2022-09-03T07:06:09;6.27;;;5.67;;
1593;SDS011;790;47.000;16.084;2022-09-03T07:12:33;5.40;;;4.67;;
1593;SDS011;790;47.000;16.084;2022-09-03T07:18:56;5.10;;;4.60;;
1593;SDS011;790;47.000;16.084;2022-09-03T07:25:19;6.03;;;4.87;;
1593;SDS011;790;47.000;16.084;2022-09-03T07:36:07;7.80;;;4.47;;
1593;SDS011;790;47.000;16.084;2022-09-03T07:42:17;6.77;;;4.27;;
1593;SDS011;790;47.000;16.084;2022-09-03T07:48:26;8.33;;;4.00;;
1593;SDS011;790;47.000;16.084;2022-09-03T07:54:37;3.70;;;3.40;;
1593;SDS011;790;47.000;16.084;2022-09-03T08:00:46;4.27;;;3.73;;
1593;SDS011;790;47.000;16.084;2022-09-03T08:06:55;7.00;;;3.60;;
1593;SDS011;790;47.000;16.084;2022-09-03T08:13:06;4.17;;;3.80;;
1593;SDS011;790;47.000;16.084;2022-09-03T08:19:14;3.30;;;3.08;;
1593;SDS011;790;47.000;16.084;2022-09-03T08:25:23;4.30;;;3.30;;
1593;SDS011;790;47.000;16.084;2022-09-03T08:35:52;3.45;;;3.22;;
1593;SDS011;790;47.000;16.084;2022-09-03T08:42:23;3.90;;;3.10;;
1593;SDS011;790;47.000;16.084;2022-09-03T08:48:53;2.92;;;2.72;;
1593;SDS011;790;47.000;16.084;2022-09-03T08:55:20;3.70;;;2.60;;
1593;SDS011;790;47.000;16.084;2022-09-03T09:01:47;2.70;;;2.50;;
1593;SDS011;790;47.000;16.084;2022-09-03T09:08:17;2.70;;;2.50;;
1593;SDS011;790;47.000;16.084;2022-09-03T09:14:48;2.33;;;2.20;;
1593;SDS011;790;47.000;16.084;2022-09-03T09:21:17;3.53;;;2.47;;
1593;SDS011;790;47.000;16.084;2022-09-03T09:27:49;2.50;;;2.13;;
1593;SDS011;790;47.000;16.084;2022-09-03T09:38:49;2.42;;;2.20;;
1593;SDS011;790;47.000;16.084;2022-09-03T09:45:07;2.53;;;2.33;;
1593;SDS011;790;47.000;16.084;2022-09-03T09:51:19;2.45;;;2.33;;
1593;SDS011;790;47.000;16.084;2022-09-03T09:57:30;2.78;;;2.45;;
1593;SDS011;790;47.000;16.084;2022-09-03T10:04:07;2.50;;;2.30;;
1593;SDS011;790;47.000;16.084;2022-09-03T10:10:18;2.35;;;2.10;;
1593;SDS011;790;47.000;16.084;2022-09-03T10:16:29;2.63;;;2.10;;
1593;SDS011;790;47.000;16.084;2022-09-03T10:22:44;3.15;;;2.60;;
1593;SDS011;790;47.000;16.084;2022-09-03T10:28:59;2.92;;;2.72;;
1593;SDS011;790;47.000;16.084;2022-09-03T10:39:39;2.85;;;2.40;;
1593;SDS011;790;47.000;16.084;2022-09-03T10:46:13;3.78;;;2.20;;
1593;SDS011;790;47.000;16.084;2022-09-03T10:52:39;2.22;;;2.05;;
1593;SDS011;790;47.000;16.084;2022-09-03T10:59:24;2.35;;;2.25;;
1593;SDS011;790;47.000;16.084;2022-09-03T11:05:57;2.25;;;2.15;;
1593;SDS011;790;47.000;16.084;2022-09-03T11:12:23;1.80;;;1.70;;
1593;SDS011;790;47.000;16.084;2022-09-03T11:18:50;1.77;;;1.67;;
1593;SDS011;790;47.000;16.084;2022-09-03T11:25:14;1.80;;;1.70;;
1593;SDS011;790;47.000;16.084;2022-09-03T11:31:44;2.55;;;2.00;;
1593;SDS011;790;47.000;16.084;2022-09-03T11:43:12;2.00;;;1.85;;
1593;SDS011;790;47.000;16.084;2022-09-03T11:49:33;2.88;;;1.90;;
1593;SDS011;790;47.000;16.084;2022-09-03T11:55:52;2.25;;;1.90;;
1593;SDS011;790;47.000;16.084;2022-09-03T12:02:03;3.90;;;1.85;;
1593;SDS011;790;47.000;16.084;2022-09-03T12:15:04;4.35;;;2.10;;
1593;SDS011;790;47.000;16.084;2022-09-03T12:21:22;2.95;;;1.80;;
1593;SDS011;790;47.000;16.084;2022-09-03T12:27:31;4.18;;;1.75;;
1593;SDS011;790;47.000;16.084;2022-09-03T12:33:40;5.03;;;1.88;;
1593;SDS011;790;47.000;16.084;2022-09-03T12:44:49;3.75;;;1.80;;
1593;SDS011;790;47.000;16.084;2022-09-03T12:51:10;3.53;;;1.70;;
1593;SDS011;790;47.000;16.084;2022-09-03T12:57:31;2.10;;;1.50;;
1593;SDS011;790;47.000;16.084;2022-09-03T13:04:00;1.60;;;1.50;;
1593;SDS011;790;47.000;16.084;2022-09-03T13:10:26;3.20;;;1.80;;
1593;SDS011;790;47.000;16.084;2022-09-03T13:23:36;2.15;;;1.70;;
1593;SDS011;790;47.000;16.084;2022-09-03T13:30:10;2.30;;;1.40;;
1593;SDS011;790;47.000;16.084;2022-09-03T13:36:36;1.42;;;1.42;;
1593;SDS011;790;47.000;16.084;2022-09-03T13:48:01;1.80;;;1.70;;
1593;SDS011;790;47.000;16.084;2022-09-03T13:54:34;1.95;;;1.50;;
1593;SDS011;790;47.000;16.084;2022-09-03T14:00:48;1.63;;;1.63;;
1593;SDS011;790;47.000;16.084;2022-09-03T14:07:05;1.60;;;1.50;;
1593;SDS011;790;47.000;16.084;2022-09-03T14:13:19;1.70;;;1.60;;
1593;SDS011;790;47.000;16.084;2022-09-03T14:19:36;2.10;;;2.00;;
1593;SDS011;790;47.000;16.084;2022-09-03T14:25:55;2.40;;;1.60;;
1593;SDS011;790;47.000;16.084;2022-09-03T14:32:10;3.65;;;1.90;;
1593;SDS011;790;47.000;16.084;2022-09-03T14:50:21;1.73;;;1.60;;
1593;SDS011;790;47.000;16.084;2022-09-03T14:57:01;1.60;;;1.60;;
1593;SDS011;790;47.000;16.084;2022-09-03T15:03:48;5.32;;;1.77;;
1593;SDS011;790;47.000;16.084;2022-09-03T15:10:28;3.53;;;1.88;;
1593;SDS011;790;47.000;16.084;2022-09-03T15:17:03;2.00;;;1.90;;
1593;SDS011;790;47.000;16.084;2022-09-03T15:23:41;2.55;;;1.65;;
1593;SDS011;790;47.000;16.084;2022-09-03T15:30:18;2.60;;;1.90;;
1593;SDS011;790;47.000;16.084;2022-09-03T15:36:41;1.88;;;1.77;;
1593;SDS011;790;47.000;16.084;2022-09-03T15:43:08;4.45;;;1.80;;
1593;SDS011;790;47.000;16.084;2022-09-03T15:49:57;1.67;;;1.58;;
1593;SDS011;790;47.000;16.084;2022-09-03T15:56:23;1.92;;;1.83;;
1593;SDS011;790;47.000;16.084;2022-09-03T16:02:49;2.38;;;1.92;;
1593;SDS011;790;47.000;16.084;2022-09-03T16:09:23;2.20;;;2.10;;
1593;SDS011;790;47.000;16.084;2022-09-03T16:15:56;4.82;;;2.00;;
1593;SDS011;790;47.000;16.084;2022-09-03T16:22:25;2.08;;;1.90;;
1593;SDS011;790;47.000;16.084;2022-09-03T16:28:51;2.33;;;2.22;;
1593;SDS011;790;47.000;16.084;2022-09-03T16:35:19;3.47;;;2.17;;
1593;SDS011;790;47.000;16.084;2022-09-03T16:41:51;2.20;;;2.10;;
1593;SDS011;790;47.000;16.084;2022-09-03T16:53:20;2.97;;;2.03;;
1593;SDS011;790;47.000;16.084;2022-09-03T17:06:26;3.25;;;2.20;;
1593;SDS011;790;47.000;16.084;2022-09-03T17:13:28;2.45;;;2.35;;
1593;SDS011;790;47.000;16.084;2022-09-03T17:20:00;2.85;;;2.65;;
1593;SDS011;790;47.000;16.084;2022-09-03T17:26:18;3.03;;;2.58;;
1593;SDS011;790;47.000;16.084;2022-09-03T17:32:39;2.65;;;2.45;;
1593;SDS011;790;47.000;16.084;2022-09-03T17:39:18;2.63;;;2.33;;
1593;SDS011;790;47.000;16.084;2022-09-03T17:45:50;2.85;;;2.67;;
1593;SDS011;790;47.000;16.084;2022-09-03T17:52:21;3.30;;;2.90;;
1593;SDS011;790;47.000;16.084;2022-09-03T17:58:34;3.85;;;3.05;;
1593;SDS011;790;47.000;16.084;2022-09-03T18:04:47;4.97;;;2.80;;
1593;SDS011;790;47.000;16.084;2022-09-03T18:11:08;3.20;;;3.00;;
1593;SDS011;790;47.000;16.084;2022-09-03T18:17:20;3.63;;;2.83;;
1593;SDS011;790;47.000;16.084;2022-09-03T18:23:39;2.70;;;2.60;;
1593;SDS011;790;47.000;16.084;2022-09-03T18:30:13;3.00;;;2.80;;
1593;SDS011;790;47.000;16.084;2022-09-03T18:36:39;3.10;;;2.90;;
1593;SDS011;790;47.000;16.084;2022-09-03T18:43:06;3.55;;;3.25;;
1593;SDS011;790;47.000;16.084;2022-09-03T18:54:08;3.00;;;2.80;;
1593;SDS011;790;47.000;16.084;2022-09-03T19:01:03;3.22;;;2.90;;
1593;SDS011;790;47.000;16.084;2022-09-03T19:07:48;5.93;;;2.90;;
1593;SDS011;790;47.000;16.084;2022-09-03T19:14:36;2.90;;;2.70;;
1593;SDS011;790;47.000;16.084;2022-09-03T19:21:24;3.43;;;3.13;;
1593;SDS011;790;47.000;16.084;2022-09-03T19:28:11;3.03;;;2.80;;
1593;SDS011;790;47.000;16.084;2022-09-03T19:34:57;3.30;;;2.73;;
1593;SDS011;790;47.000;16.084;2022-09-03T19:41:49;3.20;;;3.00;;
1593;SDS011;790;47.000;16.084;2022-09-03T19:48:35;3.07;;;2.80;;
1593;SDS011;790;47.000;16.084;2022-09-03T19:55:43;4.70;;;2.80;;
1593;SDS011;790;47.000;16.084;2022-09-03T20:02:23;3.87;;;3.57;;
1593;SDS011;790;47.000;16.084;2022-09-03T20:09:03;3.70;;;3.50;;
1593;SDS011;790;47.000;16.084;2022-09-03T20:15:49;3.67;;;2.87;;
1593;SDS011;790;47.000;16.084;2022-09-03T20:22:22;3.73;;;3.07;;
1593;SDS011;790;47.000;16.084;2022-09-03T20:28:54;4.73;;;3.07;;
1593;SDS011;790;47.000;16.084;2022-09-03T20:42:19;3.13;;;2.90;;
1593;SDS011;790;47.000;16.084;2022-09-03T20:52:49;3.53;;;3.23;;
1593;SDS011;790;47.000;16.084;2022-09-03T20:59:09;5.53;;;3.33;;
1593;SDS011;790;47.000;16.084;2022-09-03T21:05:24;3.00;;;2.80;;
1593;SDS011;790;47.000;16.084;2022-09-03T21:11:40;3.60;;;3.30;;
1593;SDS011;790;47.000;16.084;2022-09-03T21:17:55;3.50;;;3.20;;
1593;SDS011;790;47.000;16.084;2022-09-03T21:24:10;3.30;;;3.10;;
1593;SDS011;790;47.000;16.084;2022-09-03T21:30:25;4.13;;;3.10;;
1593;SDS011;790;47.000;16.084;2022-09-03T21:36:35;3.50;;;3.20;;
1593;SDS011;790;47.000;16.084;2022-09-03T21:42:47;3.33;;;3.13;;
1593;SDS011;790;47.000;16.084;2022-09-03T21:53:10;4.47;;;3.23;;
1593;SDS011;790;47.000;16.084;2022-09-03T21:59:44;3.47;;;3.20;;
1593;SDS011;790;47.000;16.084;2022-09-03T22:06:18;3.77;;;3.47;;
1593;SDS011;790;47.000;16.084;2022-09-03T22:12:48;3.80;;;3.40;;
1593;SDS011;790;47.000;16.084;2022-09-03T22:19:13;3.37;;;3.17;;
1593;SDS011;790;47.000;16.084;2022-09-03T22:25:37;4.80;;;3.40;;
1593;SDS011;790;47.000;16.084;2022-09-03T22:32:07;4.17;;;3.90;;
1593;SDS011;790;47.000;16.084;2022-09-03T22:38:45;3.40;;;3.20;;
1593;SDS011;790;47.000;16.084;2022-09-03T22:45:21;4.30;;;3.80;;
1593;SDS011;790;47.000;16.084;2022-09-03T22:56:49;3.77;;;3.57;;
1593;SDS011;790;47.000;16.084;2022-09-03T23:03:01;4.43;;;3.90;;
1593;SDS011;790;47.000;16.084;2022-09-03T23:09:14;3.67;;;3.47;;
1593;SDS011;790;47.000;16.084;2022-09-03T23:15:28;4.20;;;3.90;;
1593;SDS011;790;47.000;16.084;2022-09-03T23:21:38;5.23;;;3.70;;
1593;SDS011;790;47.000;16.084;2022-09-03T23:27:47;4.80;;;3.83;;
1593;SDS011;790;47.000;16.084;2022-09-03T23:34:00;3.80;;;3.60;;
1593;SDS011;790;47.000;16.084;2022-09-03T23:40:11;4.43;;;4.13;;
1593;SDS011;790;47.000;16.084;2022-09-03T23:46:36;4.37;;;4.10;;
1593;SDS011;790;47.000;16.084;2022-09-03T23:57:15;5.50;;;4.30;;
